Admire, Kansas
Current Conditions -  °F | °C
As of 9:53 AM on Wednesday 26 Nov 2014 (Local Time) from KEMP Reporting Station
Overcast Overcast  
Wind Chill: 38°   Ceiling: 6500
Heat Index: 45°   Visibility: 10mi
Dew Point: 25°   Wind: 16mph
Humidity: 46%   Direction: 310°NW
Pressure: 30.06"   Gusts: 30mph
Location:  38.64°N, 96.1°W
Report Text: KEMP 261553Z AUTO 31014G26KT 10SM OVC065 07/M04 A3006 RMK AO2 PK WND 32029/1538 SLP186 T00721039
Loading
Personal Weather Stations






























Interactive Weather Map New forecast layout! Learn more

10-Day Weather Forecast

Advertisements
Track Severe Weather on mobile